sensor_id;sensor_type;location;lat;lon;timestamp;pressure;altitude;pressure_sealevel;temperature;humidity
15670;BME280;18524;45.190;5.732;2023-05-19T00:04:39;99352.59;;;13.76;100.00
15670;BME280;18524;45.190;5.732;2023-05-19T00:09:29;99361.88;;;13.80;100.00
15670;BME280;18524;45.190;5.732;2023-05-19T00:14:20;99351.34;;;13.80;100.00
15670;BME280;18524;45.190;5.732;2023-05-19T00:19:11;99355.31;;;13.74;100.00
15670;BME280;18524;45.190;5.732;2023-05-19T00:24:01;99349.94;;;13.76;100.00
15670;BME280;18524;45.190;5.732;2023-05-19T00:28:52;99351.31;;;13.61;100.00
15670;BME280;18524;45.190;5.732;2023-05-19T00:33:42;99346.59;;;13.55;100.00
15670;BME280;18524;45.190;5.732;2023-05-19T00:38:34;99355.19;;;13.57;100.00
15670;BME280;18524;45.190;5.732;2023-05-19T00:43:25;99339.25;;;13.58;100.00
15670;BME280;18524;45.190;5.732;2023-05-19T00:48:15;99344.66;;;13.57;100.00
15670;BME280;18524;45.190;5.732;2023-05-19T00:53:06;99332.03;;;13.60;100.00
15670;BME280;18524;45.190;5.732;2023-05-19T00:57:57;99331.63;;;13.55;100.00
15670;BME280;18524;45.190;5.732;2023-05-19T01:02:48;99333.00;;;13.50;100.00
15670;BME280;18524;45.190;5.732;2023-05-19T01:07:40;99329.94;;;13.44;100.00
15670;BME280;18524;45.190;5.732;2023-05-19T01:12:30;99324.50;;;13.36;100.00
15670;BME280;18524;45.190;5.732;2023-05-19T01:17:31;99319.69;;;13.41;100.00
15670;BME280;18524;45.190;5.732;2023-05-19T01:32:54;99312.03;;;13.29;100.00
15670;BME280;18524;45.190;5.732;2023-05-19T01:37:46;99316.03;;;13.23;100.00
15670;BME280;18524;45.190;5.732;2023-05-19T01:42:38;99312.44;;;13.24;100.00
15670;BME280;18524;45.190;5.732;2023-05-19T01:47:29;99313.53;;;13.22;100.00
15670;BME280;18524;45.190;5.732;2023-05-19T01:52:20;99316.03;;;13.23;100.00
15670;BME280;18524;45.190;5.732;2023-05-19T02:02:25;99312.44;;;13.24;100.00
15670;BME280;18524;45.190;5.732;2023-05-19T02:07:25;99315.75;;;13.26;100.00
15670;BME280;18524;45.190;5.732;2023-05-19T02:12:53;99312.72;;;13.21;100.00
15670;BME280;18524;45.190;5.732;2023-05-19T02:17:39;99309.06;;;13.12;100.00
15670;BME280;18524;45.190;5.732;2023-05-19T02:22:31;99307.69;;;13.08;100.00
15670;BME280;18524;45.190;5.732;2023-05-19T02:27:22;99304.84;;;13.00;100.00
15670;BME280;18524;45.190;5.732;2023-05-19T02:32:13;99308.50;;;13.09;100.00
15670;BME280;18524;45.190;5.732;2023-05-19T02:37:03;99312.19;;;12.97;100.00
15670;BME280;18524;45.190;5.732;2023-05-19T02:41:54;99310.94;;;12.91;100.00
15670;BME280;18524;45.190;5.732;2023-05-19T02:46:44;99310.66;;;12.84;100.00
15670;BME280;18524;45.190;5.732;2023-05-19T02:51:35;99303.41;;;12.77;100.00
15670;BME280;18524;45.190;5.732;2023-05-19T02:56:25;99300.94;;;12.75;100.00
15670;BME280;18524;45.190;5.732;2023-05-19T03:01:17;99301.91;;;12.74;100.00
15670;BME280;18524;45.190;5.732;2023-05-19T03:06:07;99294.53;;;12.68;100.00
15670;BME280;18524;45.190;5.732;2023-05-19T03:10:58;99301.19;;;12.72;100.00
15670;BME280;18524;45.190;5.732;2023-05-19T03:15:48;99290.94;;;12.69;100.00
15670;BME280;18524;45.190;5.732;2023-05-19T03:20:40;99290.94;;;12.69;100.00
15670;BME280;18524;45.190;5.732;2023-05-19T03:25:31;99289.28;;;12.68;100.00
15670;BME280;18524;45.190;5.732;2023-05-19T03:30:21;99286.78;;;12.67;100.00
15670;BME280;18524;45.190;5.732;2023-05-19T03:35:12;99288.47;;;12.77;100.00
15670;BME280;18524;45.190;5.732;2023-05-19T03:40:02;99291.91;;;12.68;100.00
15670;BME280;18524;45.190;5.732;2023-05-19T03:44:54;99288.50;;;12.57;100.00
15670;BME280;18524;45.190;5.732;2023-05-19T03:49:44;99286.16;;;12.53;100.00
15670;BME280;18524;45.190;5.732;2023-05-19T03:54:35;99291.38;;;12.44;100.00
15670;BME280;18524;45.190;5.732;2023-05-19T03:59:26;99298.56;;;12.42;100.00
15670;BME280;18524;45.190;5.732;2023-05-19T04:04:17;99290.53;;;12.43;100.00
15670;BME280;18524;45.190;5.732;2023-05-19T04:09:14;99298.69;;;12.40;100.00
15670;BME280;18524;45.190;5.732;2023-05-19T04:14:05;99291.13;;;12.47;100.00
15670;BME280;18524;45.190;5.732;2023-05-19T04:18:56;99297.16;;;12.38;100.00
15670;BME280;18524;45.190;5.732;2023-05-19T04:23:46;99290.50;;;12.34;100.00
15670;BME280;18524;45.190;5.732;2023-05-19T04:28:36;99291.72;;;12.30;100.00
15670;BME280;18524;45.190;5.732;2023-05-19T04:33:29;99296.88;;;12.31;100.00
15670;BME280;18524;45.190;5.732;2023-05-19T04:38:19;99299.66;;;12.39;100.00
15670;BME280;18524;45.190;5.732;2023-05-19T04:43:11;99294.09;;;12.33;100.00
15670;BME280;18524;45.190;5.732;2023-05-19T04:48:01;99288.97;;;12.31;100.00
15670;BME280;18524;45.190;5.732;2023-05-19T04:52:51;99295.47;;;12.27;100.00
15670;BME280;18524;45.190;5.732;2023-05-19T04:57:42;99291.03;;;12.28;100.00
15670;BME280;18524;45.190;5.732;2023-05-19T05:02:32;99298.09;;;12.27;100.00
15670;BME280;18524;45.190;5.732;2023-05-19T05:07:23;99301.72;;;12.36;100.00
15670;BME280;18524;45.190;5.732;2023-05-19T05:12:14;99301.06;;;12.43;100.00
15670;BME280;18524;45.190;5.732;2023-05-19T05:17:05;99303.31;;;12.48;100.00
15670;BME280;18524;45.190;5.732;2023-05-19T05:21:57;99305.00;;;12.59;100.00
15670;BME280;18524;45.190;5.732;2023-05-19T05:26:47;99308.94;;;12.64;100.00
15670;BME280;18524;45.190;5.732;2023-05-19T05:31:38;99302.16;;;12.71;100.00
15670;BME280;18524;45.190;5.732;2023-05-19T05:36:28;99300.22;;;12.73;100.00
15670;BME280;18524;45.190;5.732;2023-05-19T05:41:20;99301.91;;;12.84;100.00
15670;BME280;18524;45.190;5.732;2023-05-19T05:46:11;99297.22;;;12.88;100.00
15670;BME280;18524;45.190;5.732;2023-05-19T05:51:01;99297.09;;;12.99;100.00
15670;BME280;18524;45.190;5.732;2023-05-19T05:55:52;99287.47;;;13.19;100.00
15670;BME280;18524;45.190;5.732;2023-05-19T06:00:43;99291.91;;;13.37;100.00
15670;BME280;18524;45.190;5.732;2023-05-19T06:05:33;99281.69;;;13.83;100.00
15670;BME280;18524;45.190;5.732;2023-05-19T06:10:23;99291.59;;;14.18;100.00
15670;BME280;18524;45.190;5.732;2023-05-19T06:15:14;99283.19;;;14.79;100.00
15670;BME280;18524;45.190;5.732;2023-05-19T06:20:05;99279.94;;;15.12;100.00
15670;BME280;18524;45.190;5.732;2023-05-19T06:24:55;99277.56;;;15.54;100.00
15670;BME280;18524;45.190;5.732;2023-05-19T06:29:46;99278.75;;;16.21;100.00
15670;BME280;18524;45.190;5.732;2023-05-19T06:34:36;99273.34;;;16.65;100.00
15670;BME280;18524;45.190;5.732;2023-05-19T06:39:27;99275.16;;;16.99;100.00
15670;BME280;18524;45.190;5.732;2023-05-19T06:44:17;99274.91;;;17.18;100.00
15670;BME280;18524;45.190;5.732;2023-05-19T06:49:08;99270.22;;;17.04;100.00
15670;BME280;18524;45.190;5.732;2023-05-19T06:53:58;99264.97;;;17.12;100.00
15670;BME280;18524;45.190;5.732;2023-05-19T06:58:48;99266.38;;;17.73;100.00
15670;BME280;18524;45.190;5.732;2023-05-19T07:03:39;99255.09;;;17.87;100.00
15670;BME280;18524;45.190;5.732;2023-05-19T07:08:29;99252.75;;;18.00;100.00
15670;BME280;18524;45.190;5.732;2023-05-19T07:13:20;99248.41;;;18.24;100.00
15670;BME280;18524;45.190;5.732;2023-05-19T07:18:10;99250.03;;;18.80;100.00
15670;BME280;18524;45.190;5.732;2023-05-19T07:23:00;99254.59;;;19.02;100.00
15670;BME280;18524;45.190;5.732;2023-05-19T07:27:51;99252.66;;;19.19;100.00
15670;BME280;18524;45.190;5.732;2023-05-19T07:32:42;99249.63;;;19.91;95.99
15670;BME280;18524;45.190;5.732;2023-05-19T07:37:32;99248.13;;;19.51;97.49
15670;BME280;18524;45.190;5.732;2023-05-19T07:42:22;99248.25;;;19.57;94.32
15670;BME280;18524;45.190;5.732;2023-05-19T07:47:13;99244.16;;;20.22;94.35
15670;BME280;18524;45.190;5.732;2023-05-19T07:52:03;99230.19;;;20.05;93.48
15670;BME280;18524;45.190;5.732;2023-05-19T07:56:54;99242.03;;;19.65;93.18
15670;BME280;18524;45.190;5.732;2023-05-19T08:01:45;99235.88;;;19.19;95.69
15670;BME280;18524;45.190;5.732;2023-05-19T08:06:35;99232.44;;;19.10;97.03
15670;BME280;18524;45.190;5.732;2023-05-19T08:11:26;99229.31;;;19.07;99.01
15670;BME280;18524;45.190;5.732;2023-05-19T08:16:16;99225.88;;;18.98;98.51
15670;BME280;18524;45.190;5.732;2023-05-19T08:21:06;99227.25;;;18.86;97.44
15670;BME280;18524;45.190;5.732;2023-05-19T08:25:57;99221.22;;;18.61;99.48
15670;BME280;18524;45.190;5.732;2023-05-19T08:30:49;99213.63;;;18.50;99.83
15670;BME280;18524;45.190;5.732;2023-05-19T08:35:39;99216.00;;;18.36;100.00
15670;BME280;18524;45.190;5.732;2023-05-19T08:40:30;99211.47;;;18.45;100.00
15670;BME280;18524;45.190;5.732;2023-05-19T08:45:22;99204.50;;;18.44;100.00
15670;BME280;18524;45.190;5.732;2023-05-19T08:50:16;99206.13;;;18.53;100.00
15670;BME280;18524;45.190;5.732;2023-05-19T09:00:16;99205.09;;;18.70;100.00
15670;BME280;18524;45.190;5.732;2023-05-19T09:05:08;99193.59;;;18.78;100.00
15670;BME280;18524;45.190;5.732;2023-05-19T09:09:59;99185.50;;;18.94;100.00
15670;BME280;18524;45.190;5.732;2023-05-19T09:14:50;99186.50;;;18.93;100.00
15670;BME280;18524;45.190;5.732;2023-05-19T09:19:43;99183.06;;;19.16;100.00
15670;BME280;18524;45.190;5.732;2023-05-19T09:24:33;99187.75;;;19.28;97.66
15670;BME280;18524;45.190;5.732;2023-05-19T09:29:23;99183.25;;;19.75;93.86
15670;BME280;18524;45.190;5.732;2023-05-19T09:34:15;99185.25;;;20.76;86.92
15670;BME280;18524;45.190;5.732;2023-05-19T09:39:15;99184.34;;;20.83;81.64
15670;BME280;18524;45.190;5.732;2023-05-19T09:44:06;99177.69;;;20.79;81.54
15670;BME280;18524;45.190;5.732;2023-05-19T09:48:57;99173.19;;;20.80;80.92
15670;BME280;18524;45.190;5.732;2023-05-19T09:53:48;99176.22;;;20.91;80.30
15670;BME280;18524;45.190;5.732;2023-05-19T09:58:40;99170.25;;;20.89;78.21
15670;BME280;18524;45.190;5.732;2023-05-19T10:03:32;99175.44;;;20.98;78.04
15670;BME280;18524;45.190;5.732;2023-05-19T10:08:22;99168.84;;;20.94;78.73
15670;BME280;18524;45.190;5.732;2023-05-19T10:13:15;99168.78;;;20.87;83.10
15670;BME280;18524;45.190;5.732;2023-05-19T10:18:08;99164.13;;;20.74;81.81
15670;BME280;18524;45.190;5.732;2023-05-19T10:22:58;99158.19;;;20.57;81.72
15670;BME280;18524;45.190;5.732;2023-05-19T10:27:53;99158.72;;;20.68;81.79
15670;BME280;18524;45.190;5.732;2023-05-19T10:32:45;99160.22;;;20.55;83.71
15670;BME280;18524;45.190;5.732;2023-05-19T10:42:51;99156.75;;;20.40;80.64
15670;BME280;18524;45.190;5.732;2023-05-19T10:47:43;99153.34;;;20.17;80.73
15670;BME280;18524;45.190;5.732;2023-05-19T10:52:39;99156.88;;;19.65;81.94
15670;BME280;18524;45.190;5.732;2023-05-19T10:57:29;99157.63;;;19.59;81.60
15670;BME280;18524;45.190;5.732;2023-05-19T11:02:42;99142.38;;;19.67;83.29
15670;BME280;18524;45.190;5.732;2023-05-19T11:07:33;99139.19;;;20.02;80.39
15670;BME280;18524;45.190;5.732;2023-05-19T11:12:23;99134.41;;;20.26;80.65
15670;BME280;18524;45.190;5.732;2023-05-19T11:17:14;99129.81;;;20.50;80.57
15670;BME280;18524;45.190;5.732;2023-05-19T11:22:10;99128.25;;;20.55;79.49
15670;BME280;18524;45.190;5.732;2023-05-19T11:32:10;99127.59;;;20.53;77.49
15670;BME280;18524;45.190;5.732;2023-05-19T11:37:01;99128.78;;;20.36;79.26
15670;BME280;18524;45.190;5.732;2023-05-19T11:41:54;99122.63;;;20.36;80.18
15670;BME280;18524;45.190;5.732;2023-05-19T11:46:44;99110.44;;;20.26;77.26
15670;BME280;18524;45.190;5.732;2023-05-19T11:51:35;99114.22;;;20.17;78.94
15670;BME280;18524;45.190;5.732;2023-05-19T11:56:25;99110.66;;;20.10;81.36
15670;BME280;18524;45.190;5.732;2023-05-19T12:01:15;99114.69;;;20.06;82.75
15670;BME280;18524;45.190;5.732;2023-05-19T12:06:06;99099.44;;;20.00;85.24
15670;BME280;18524;45.190;5.732;2023-05-19T12:10:58;99117.09;;;19.86;84.59
15670;BME280;18524;45.190;5.732;2023-05-19T12:15:50;99114.25;;;19.73;84.70
15670;BME280;18524;45.190;5.732;2023-05-19T12:20:41;99101.19;;;19.63;85.01
15670;BME280;18524;45.190;5.732;2023-05-19T12:25:32;99103.25;;;19.76;85.09
15670;BME280;18524;45.190;5.732;2023-05-19T12:30:26;99105.63;;;19.86;82.66
15670;BME280;18524;45.190;5.732;2023-05-19T12:35:17;99087.97;;;20.14;82.21
15670;BME280;18524;45.190;5.732;2023-05-19T12:40:14;99090.84;;;20.34;85.79
15670;BME280;18524;45.190;5.732;2023-05-19T12:45:06;99093.16;;;20.52;83.12
15670;BME280;18524;45.190;5.732;2023-05-19T12:50:08;99088.34;;;20.62;79.44
15670;BME280;18524;45.190;5.732;2023-05-19T12:55:00;99084.47;;;20.65;79.76
15670;BME280;18524;45.190;5.732;2023-05-19T12:59:51;99066.63;;;20.65;80.51
15670;BME280;18524;45.190;5.732;2023-05-19T13:04:41;99067.91;;;20.69;78.18
15670;BME280;18524;45.190;5.732;2023-05-19T13:09:33;99071.72;;;20.60;78.96
15670;BME280;18524;45.190;5.732;2023-05-19T13:14:25;99077.50;;;20.64;79.21
15670;BME280;18524;45.190;5.732;2023-05-19T13:19:17;99071.38;;;20.34;78.98
15670;BME280;18524;45.190;5.732;2023-05-19T13:24:08;99059.91;;;20.48;79.16
15670;BME280;18524;45.190;5.732;2023-05-19T13:28:59;99052.66;;;20.42;80.43
15670;BME280;18524;45.190;5.732;2023-05-19T13:33:49;99051.53;;;20.51;79.89
15670;BME280;18524;45.190;5.732;2023-05-19T13:38:39;99037.00;;;20.53;81.03
15670;BME280;18524;45.190;5.732;2023-05-19T13:43:30;99041.00;;;20.64;80.05
15670;BME280;18524;45.190;5.732;2023-05-19T13:48:21;99029.56;;;20.70;79.22
15670;BME280;18524;45.190;5.732;2023-05-19T13:53:11;99028.75;;;20.70;79.79
15670;BME280;18524;45.190;5.732;2023-05-19T13:58:01;99020.19;;;20.74;79.45
15670;BME280;18524;45.190;5.732;2023-05-19T14:02:52;99021.34;;;20.65;81.08
15670;BME280;18524;45.190;5.732;2023-05-19T14:07:43;99019.75;;;20.71;81.03
15670;BME280;18524;45.190;5.732;2023-05-19T14:12:34;99029.66;;;20.55;81.20
15670;BME280;18524;45.190;5.732;2023-05-19T14:17:26;99017.25;;;20.69;82.53
15670;BME280;18524;45.190;5.732;2023-05-19T14:22:17;99016.34;;;20.55;80.68
15670;BME280;18524;45.190;5.732;2023-05-19T14:27:08;99003.09;;;20.26;81.35
15670;BME280;18524;45.190;5.732;2023-05-19T14:31:59;99006.19;;;20.29;82.41
15670;BME280;18524;45.190;5.732;2023-05-19T14:36:49;99006.13;;;20.23;83.54
15670;BME280;18524;45.190;5.732;2023-05-19T14:41:40;99013.69;;;20.19;83.89
15670;BME280;18524;45.190;5.732;2023-05-19T14:46:30;98999.09;;;20.15;85.17
15670;BME280;18524;45.190;5.732;2023-05-19T14:51:20;98989.81;;;20.11;85.60
15670;BME280;18524;45.190;5.732;2023-05-19T14:56:11;98996.38;;;19.94;86.51
15670;BME280;18524;45.190;5.732;2023-05-19T15:01:01;98992.63;;;19.88;86.52
15670;BME280;18524;45.190;5.732;2023-05-19T15:05:51;98983.31;;;19.99;89.36
15670;BME280;18524;45.190;5.732;2023-05-19T15:10:42;98984.25;;;19.91;91.75
15670;BME280;18524;45.190;5.732;2023-05-19T15:15:32;98985.50;;;19.74;92.90
15670;BME280;18524;45.190;5.732;2023-05-19T15:20:22;98992.09;;;19.63;92.49
15670;BME280;18524;45.190;5.732;2023-05-19T15:25:13;98975.94;;;19.50;93.80
15670;BME280;18524;45.190;5.732;2023-05-19T15:30:05;98980.81;;;19.47;95.96
15670;BME280;18524;45.190;5.732;2023-05-19T15:34:55;98976.16;;;19.34;98.95
15670;BME280;18524;45.190;5.732;2023-05-19T15:39:45;98978.69;;;19.27;100.00
15670;BME280;18524;45.190;5.732;2023-05-19T15:44:36;98981.16;;;19.14;100.00
15670;BME280;18524;45.190;5.732;2023-05-19T15:49:26;98985.38;;;19.09;100.00
15670;BME280;18524;45.190;5.732;2023-05-19T15:54:17;98989.13;;;18.99;100.00
15670;BME280;18524;45.190;5.732;2023-05-19T15:59:07;98987.94;;;19.02;100.00
15670;BME280;18524;45.190;5.732;2023-05-19T16:03:57;98987.50;;;18.98;100.00
15670;BME280;18524;45.190;5.732;2023-05-19T16:08:48;98985.78;;;18.83;100.00
15670;BME280;18524;45.190;5.732;2023-05-19T16:13:39;98985.50;;;18.78;100.00
15670;BME280;18524;45.190;5.732;2023-05-19T16:18:29;98993.78;;;18.60;100.00
15670;BME280;18524;45.190;5.732;2023-05-19T16:23:20;98993.19;;;18.50;100.00
15670;BME280;18524;45.190;5.732;2023-05-19T16:28:10;98998.91;;;18.38;100.00
15670;BME280;18524;45.190;5.732;2023-05-19T16:33:00;99002.69;;;18.21;100.00
15670;BME280;18524;45.190;5.732;2023-05-19T16:37:51;99002.25;;;18.09;100.00
15670;BME280;18524;45.190;5.732;2023-05-19T16:42:41;99010.00;;;17.88;100.00
15670;BME280;18524;45.190;5.732;2023-05-19T16:47:31;99000.94;;;17.66;100.00
15670;BME280;18524;45.190;5.732;2023-05-19T16:52:22;99010.31;;;17.38;100.00
15670;BME280;18524;45.190;5.732;2023-05-19T16:57:12;99006.00;;;17.37;100.00
15670;BME280;18524;45.190;5.732;2023-05-19T17:02:06;99010.88;;;17.17;100.00
15670;BME280;18524;45.190;5.732;2023-05-19T17:06:56;99007.38;;;17.08;100.00
15670;BME280;18524;45.190;5.732;2023-05-19T17:11:47;99013.38;;;17.10;100.00
15670;BME280;18524;45.190;5.732;2023-05-19T17:16:37;99014.22;;;16.78;100.00
15670;BME280;18524;45.190;5.732;2023-05-19T17:21:28;99007.91;;;16.71;100.00
15670;BME280;18524;45.190;5.732;2023-05-19T17:26:18;99011.91;;;16.75;100.00
15670;BME280;18524;45.190;5.732;2023-05-19T17:31:10;99004.44;;;16.71;100.00
15670;BME280;18524;45.190;5.732;2023-05-19T17:36:02;99006.78;;;16.82;100.00
15670;BME280;18524;45.190;5.732;2023-05-19T17:40:59;99001.09;;;16.44;100.00
15670;BME280;18524;45.190;5.732;2023-05-19T17:45:50;99014.19;;;16.38;100.00
15670;BME280;18524;45.190;5.732;2023-05-19T17:50:40;99013.03;;;16.48;100.00
15670;BME280;18524;45.190;5.732;2023-05-19T17:55:31;99016.00;;;16.62;100.00
15670;BME280;18524;45.190;5.732;2023-05-19T18:00:22;99026.59;;;16.53;100.00
15670;BME280;18524;45.190;5.732;2023-05-19T18:05:13;99020.31;;;16.46;100.00
15670;BME280;18524;45.190;5.732;2023-05-19T18:10:04;99015.00;;;16.46;100.00
15670;BME280;18524;45.190;5.732;2023-05-19T18:14:55;99013.34;;;16.45;100.00
15670;BME280;18524;45.190;5.732;2023-05-19T18:19:45;99018.13;;;16.34;100.00
15670;BME280;18524;45.190;5.732;2023-05-19T18:24:35;99020.91;;;16.24;100.00
15670;BME280;18524;45.190;5.732;2023-05-19T18:29:26;99024.22;;;16.26;100.00
15670;BME280;18524;45.190;5.732;2023-05-19T18:34:16;99019.41;;;16.21;100.00
15670;BME280;18524;45.190;5.732;2023-05-19T18:39:06;99016.28;;;16.18;100.00
15670;BME280;18524;45.190;5.732;2023-05-19T18:43:57;99021.72;;;16.16;100.00
15670;BME280;18524;45.190;5.732;2023-05-19T18:48:47;99015.78;;;16.14;100.00
15670;BME280;18524;45.190;5.732;2023-05-19T18:53:39;99017.41;;;16.07;100.00
15670;BME280;18524;45.190;5.732;2023-05-19T18:58:30;99018.41;;;16.06;100.00
15670;BME280;18524;45.190;5.732;2023-05-19T19:03:21;99013.78;;;16.00;100.00
15670;BME280;18524;45.190;5.732;2023-05-19T19:08:11;99014.88;;;15.89;100.00
15670;BME280;18524;45.190;5.732;2023-05-19T19:13:02;99022.81;;;15.89;100.00
15670;BME280;18524;45.190;5.732;2023-05-19T19:17:52;99021.63;;;15.84;100.00
15670;BME280;18524;45.190;5.732;2023-05-19T19:22:42;99028.56;;;15.85;100.00
15670;BME280;18524;45.190;5.732;2023-05-19T19:27:33;99030.56;;;15.83;100.00
15670;BME280;18524;45.190;5.732;2023-05-19T19:32:24;99029.06;;;15.80;100.00
15670;BME280;18524;45.190;5.732;2023-05-19T19:37:15;99023.44;;;15.75;100.00
15670;BME280;18524;45.190;5.732;2023-05-19T19:42:05;99027.03;;;15.66;100.00
15670;BME280;18524;45.190;5.732;2023-05-19T19:46:55;99044.19;;;15.62;100.00
15670;BME280;18524;45.190;5.732;2023-05-19T19:51:46;99043.22;;;15.63;100.00
15670;BME280;18524;45.190;5.732;2023-05-19T19:56:36;99047.13;;;15.59;100.00
15670;BME280;18524;45.190;5.732;2023-05-19T20:01:27;99049.06;;;15.57;100.00
15670;BME280;18524;45.190;5.732;2023-05-19T20:06:17;99047.53;;;15.46;100.00
15670;BME280;18524;45.190;5.732;2023-05-19T20:11:07;99054.16;;;15.50;100.00
15670;BME280;18524;45.190;5.732;2023-05-19T20:15:58;99049.97;;;15.40;100.00
15670;BME280;18524;45.190;5.732;2023-05-19T20:20:48;99049.31;;;15.38;100.00
15670;BME280;18524;45.190;5.732;2023-05-19T20:25:38;99052.78;;;15.38;100.00
15670;BME280;18524;45.190;5.732;2023-05-19T20:30:32;99051.28;;;15.36;100.00
15670;BME280;18524;45.190;5.732;2023-05-19T20:35:22;99054.59;;;15.38;100.00
15670;BME280;18524;45.190;5.732;2023-05-19T20:40:13;99057.25;;;15.38;100.00
15670;BME280;18524;45.190;5.732;2023-05-19T20:45:03;99059.56;;;15.41;100.00
15670;BME280;18524;45.190;5.732;2023-05-19T20:49:54;99058.31;;;15.53;100.00
15670;BME280;18524;45.190;5.732;2023-05-19T20:54:44;99061.41;;;15.48;100.00
15670;BME280;18524;45.190;5.732;2023-05-19T20:59:35;99052.94;;;15.37;100.00
15670;BME280;18524;45.190;5.732;2023-05-19T21:04:25;99050.28;;;15.37;100.00
15670;BME280;18524;45.190;5.732;2023-05-19T21:09:16;99045.69;;;15.39;100.00
15670;BME280;18524;45.190;5.732;2023-05-19T21:14:06;99056.09;;;15.40;100.00
15670;BME280;18524;45.190;5.732;2023-05-19T21:18:57;99054.94;;;15.43;100.00
15670;BME280;18524;45.190;5.732;2023-05-19T21:23:47;99050.34;;;15.45;100.00
15670;BME280;18524;45.190;5.732;2023-05-19T21:28:38;99051.28;;;15.36;100.00
15670;BME280;18524;45.190;5.732;2023-05-19T21:33:28;99048.00;;;15.42;100.00
15670;BME280;18524;45.190;5.732;2023-05-19T21:38:18;99047.50;;;15.38;100.00
15670;BME280;18524;45.190;5.732;2023-05-19T21:43:09;99049.28;;;15.29;100.00
15670;BME280;18524;45.190;5.732;2023-05-19T21:48:01;99043.72;;;15.41;100.00
15670;BME280;18524;45.190;5.732;2023-05-19T21:52:51;99049.47;;;15.36;100.00
15670;BME280;18524;45.190;5.732;2023-05-19T21:57:42;99050.13;;;15.38;100.00
15670;BME280;18524;45.190;5.732;2023-05-19T22:02:32;99053.94;;;15.36;100.00
15670;BME280;18524;45.190;5.732;2023-05-19T22:07:22;99061.84;;;15.36;100.00
15670;BME280;18524;45.190;5.732;2023-05-19T22:12:15;99058.53;;;15.33;100.00
15670;BME280;18524;45.190;5.732;2023-05-19T22:17:06;99059.84;;;15.29;100.00
15670;BME280;18524;45.190;5.732;2023-05-19T22:21:56;99058.53;;;15.33;100.00
15670;BME280;18524;45.190;5.732;2023-05-19T22:26:47;99063.63;;;15.27;100.00
15670;BME280;18524;45.190;5.732;2023-05-19T22:31:37;99048.91;;;15.24;100.00
15670;BME280;18524;45.190;5.732;2023-05-19T22:36:27;99057.13;;;15.21;100.00
15670;BME280;18524;45.190;5.732;2023-05-19T22:41:18;99056.44;;;15.19;100.00
15670;BME280;18524;45.190;5.732;2023-05-19T22:46:08;99065.66;;;15.15;100.00
15670;BME280;18524;45.190;5.732;2023-05-19T22:50:59;99066.97;;;15.11;100.00
15670;BME280;18524;45.190;5.732;2023-05-19T22:55:49;99053.09;;;15.09;100.00
15670;BME280;18524;45.190;5.732;2023-05-19T23:00:39;99062.47;;;15.04;100.00
15670;BME280;18524;45.190;5.732;2023-05-19T23:05:30;99057.69;;;15.07;100.00
15670;BME280;18524;45.190;5.732;2023-05-19T23:10:20;99046.75;;;15.02;100.00
15670;BME280;18524;45.190;5.732;2023-05-19T23:15:10;99043.81;;;15.05;100.00
15670;BME280;18524;45.190;5.732;2023-05-19T23:20:01;99043.81;;;15.05;100.00
15670;BME280;18524;45.190;5.732;2023-05-19T23:24:52;99036.72;;;15.06;100.00
15670;BME280;18524;45.190;5.732;2023-05-19T23:29:46;99034.38;;;15.02;100.00
15670;BME280;18524;45.190;5.732;2023-05-19T23:34:36;99029.72;;;14.96;100.00
15670;BME280;18524;45.190;5.732;2023-05-19T23:39:26;99037.34;;;14.99;100.00
15670;BME280;18524;45.190;5.732;2023-05-19T23:44:17;99037.81;;;14.95;100.00
15670;BME280;18524;45.190;5.732;2023-05-19T23:49:07;99032.97;;;14.90;100.00
15670;BME280;18524;45.190;5.732;2023-05-19T23:53:58;99026.88;;;14.90;100.00
15670;BME280;18524;45.190;5.732;2023-05-19T23:58:48;99020.91;;;14.88;100.00
